Time;durP1;ratioP1;P1;durP2;ratioP2;P2;SDS_P1;SDS_P2;PMS_P1;PMS_P2;Temp;Humidity;BMP_temperature;BMP_pressure;BME280_temperature;BME280_humidity;BME280_pressure;Samples;Min_cycle;Max_cycle;Signal;HPM_P1;HPM_P2
2023/02/05 00:01:50;;;;;;;40.30;26.50;;;;;;;9.48;100.00;103609.38;5261897;28;20029;-78
2023/02/05 00:04:21;;;;;;;42.67;27.20;;;;;;;9.49;100.00;103598.84;5267386;28;20054;-77
2023/02/05 00:06:52;;;;;;;42.67;27.02;;;;;;;9.49;100.00;103596.22;5265192;28;20032;-78
2023/02/05 00:09:23;;;;;;;44.83;28.73;;;;;;;9.50;100.00;103611.00;5261453;28;20852;-77
2023/02/05 00:11:56;;;;;;;42.65;29.70;;;;;;;9.53;100.00;103606.59;5264929;28;20333;-77
2023/02/05 00:14:27;;;;;;;44.50;29.83;;;;;;;9.52;100.00;103597.03;5264171;28;20024;-77
2023/02/05 00:16:59;;;;;;;42.90;29.40;;;;;;;9.48;100.00;103586.66;5266664;28;20321;-79
2023/02/05 00:19:30;;;;;;;46.58;30.20;;;;;;;9.50;100.00;103592.69;5265782;28;20341;-78
2023/02/05 00:22:01;;;;;;;44.05;29.70;;;;;;;9.43;100.00;103572.03;5262839;28;20029;-77
2023/02/05 00:24:33;;;;;;;44.78;30.67;;;;;;;9.44;100.00;103579.84;5266966;28;20088;-76
2023/02/05 00:27:06;;;;;;;46.95;29.77;;;;;;;9.49;100.00;103580.53;5260115;28;20036;-76
2023/02/05 00:29:37;;;;;;;43.35;30.85;;;;;;;9.49;100.00;103564.81;5262580;28;20067;-77
2023/02/05 00:32:08;;;;;;;44.85;32.08;;;;;;;9.47;100.00;103561.41;5267135;28;20068;-76
2023/02/05 00:34:40;;;;;;;42.60;30.35;;;;;;;9.46;100.00;103564.94;5247841;28;20029;-78
2023/02/05 00:37:12;;;;;;;45.63;30.52;;;;;;;9.48;100.00;103552.66;5241893;28;20032;-76
2023/02/05 00:39:43;;;;;;;40.25;29.75;;;;;;;9.47;100.00;103553.56;5257435;28;20021;-78
2023/02/05 00:42:14;;;;;;;42.95;31.13;;;;;;;9.47;100.00;103560.53;5271630;28;20020;-77
2023/02/05 00:44:46;;;;;;;44.70;31.50;;;;;;;9.43;100.00;103548.47;5262641;28;20029;-77
2023/02/05 00:47:17;;;;;;;41.17;30.92;;;;;;;9.42;100.00;103547.63;5263066;28;20066;-77
2023/02/05 00:49:48;;;;;;;44.00;31.98;;;;;;;9.44;100.00;103545.81;5265351;28;20496;-77
2023/02/05 00:52:20;;;;;;;43.85;32.45;;;;;;;9.33;100.00;103532.28;5263397;28;20504;-77
2023/02/05 00:54:52;;;;;;;48.40;32.05;;;;;;;9.40;100.00;103540.78;5262412;28;20051;-77
2023/02/05 00:57:23;;;;;;;44.13;31.90;;;;;;;9.40;100.00;103538.16;5259551;28;20032;-77
2023/02/05 00:59:54;;;;;;;39.15;30.45;;;;;;;9.42;100.00;103550.25;5267249;28;20040;-77
2023/02/05 01:02:26;;;;;;;42.13;32.60;;;;;;;9.35;100.00;103540.06;5266290;28;20017;-76
2023/02/05 01:04:57;;;;;;;44.75;31.63;;;;;;;9.39;100.00;103554.75;5262944;28;20362;-77
2023/02/05 01:07:28;;;;;;;41.67;31.27;;;;;;;9.36;100.00;103545.25;5266397;28;20055;-78
2023/02/05 01:10:00;;;;;;;43.78;31.48;;;;;;;9.41;100.00;103550.31;5266215;28;20418;-76
2023/02/05 01:12:34;;;;;;;43.05;31.58;;;;;;;9.41;100.00;103551.16;5265685;28;20025;-79
2023/02/05 01:15:07;;;;;;;42.80;30.77;;;;;;;9.41;100.00;103553.78;5252083;28;20024;-78
2023/02/05 01:17:38;;;;;;;42.33;31.88;;;;;;;9.41;100.00;103545.09;5264515;28;20515;-76
2023/02/05 01:20:10;;;;;;;41.97;32.85;;;;;;;9.35;100.00;103537.44;5270270;28;20048;-77
2023/02/05 01:22:42;;;;;;;43.83;33.65;;;;;;;9.27;100.00;103537.72;5263828;28;20442;-77
2023/02/05 01:25:13;;;;;;;39.92;31.67;;;;;;;9.25;100.00;103543.03;5265778;28;20040;-77
2023/02/05 01:27:45;;;;;;;41.53;32.10;;;;;;;9.30;100.00;103553.31;5254815;28;21400;-76
2023/02/05 01:30:16;;;;;;;41.03;32.17;;;;;;;9.30;100.00;103553.31;5259175;28;20446;-78
2023/02/05 01:32:47;;;;;;;43.47;33.75;;;;;;;9.30;100.00;103561.16;5266367;28;20443;-77
2023/02/05 01:35:19;;;;;;;39.90;31.95;;;;;;;9.33;100.00;103562.84;5271341;28;20040;-78
2023/02/05 01:37:50;;;;;;;38.42;32.35;;;;;;;9.32;100.00;103566.34;5259766;28;20470;-77
2023/02/05 01:40:21;;;;;;;43.35;32.25;;;;;;;9.28;100.00;103557.78;5267120;28;20060;-76
2023/02/05 01:42:52;;;;;;;39.80;30.92;;;;;;;9.31;100.00;103547.16;5241542;28;20046;-79
2023/02/05 01:45:24;;;;;;;38.70;29.95;;;;;;;9.31;100.00;103555.00;5256740;28;20044;-77
2023/02/05 01:48:01;;;;;;;39.90;30.20;;;;;;;9.36;100.00;103549.66;5267723;28;20037;-78
2023/02/05 01:50:40;;;;;;;42.35;32.85;;;;;;;9.31;100.00;103555.00;5262300;28;20287;-78
2023/02/05 01:53:20;;;;;;;38.55;30.42;;;;;;;9.38;100.00;103563.50;5258808;28;20374;-77
2023/02/05 01:56:09;;;;;;;44.13;32.30;;;;;;;9.45;100.00;103563.22;5259044;28;20557;-77
2023/02/05 01:59:13;;;;;;;38.40;31.08;;;;;;;9.59;100.00;103569.72;5263006;28;20028;-77
2023/02/05 02:01:45;;;;;;;38.35;30.95;;;;;;;9.22;100.00;103557.97;5234813;28;20044;-77
2023/02/05 02:04:40;;;;;;;37.33;31.53;;;;;;;9.47;100.00;103560.53;5261675;28;20058;-78
2023/02/05 02:07:18;;;;;;;40.78;30.85;;;;;;;9.36;100.00;103558.34;5261376;28;20314;-76
2023/02/05 02:09:52;;;;;;;35.15;28.83;;;;;;;9.32;100.00;103556.75;5267847;28;20070;-76
2023/02/05 02:12:29;;;;;;;34.75;28.80;;;;;;;9.31;100.00;103544.56;5258250;28;20393;-77
2023/02/05 02:15:06;;;;;;;39.17;28.02;;;;;;;9.27;100.00;103538.56;5265408;28;20036;-76
2023/02/05 02:17:41;;;;;;;39.72;28.75;;;;;;;9.26;100.00;103536.88;5264568;28;20021;-78
2023/02/05 02:20:16;;;;;;;35.50;28.50;;;;;;;9.24;100.00;103533.47;5262287;28;20028;-76
2023/02/05 02:22:54;;;;;;;40.72;30.27;;;;;;;9.18;100.00;103551.16;5262206;28;20028;-77
2023/02/05 02:25:40;;;;;;;35.47;27.80;;;;;;;9.23;100.00;103564.91;5265062;28;20103;-78
2023/02/05 02:28:23;;;;;;;33.25;26.90;;;;;;;9.21;100.00;103553.66;5265806;28;20074;-77
2023/02/05 02:31:12;;;;;;;36.58;27.65;;;;;;;9.23;100.00;103547.44;5260580;28;20028;-76
2023/02/05 02:33:50;;;;;;;35.67;27.10;;;;;;;9.19;100.00;103524.94;5265378;28;20028;-75
2023/02/05 02:36:33;;;;;;;32.85;26.50;;;;;;;9.25;100.00;103534.34;5264590;28;20052;-77
2023/02/05 02:39:31;;;;;;;32.90;25.40;;;;;;;9.44;100.00;103535.34;5263954;28;20044;-77
2023/02/05 02:42:35;;;;;;;34.95;26.27;;;;;;;9.34;100.00;103527.91;5256353;28;20434;-77
2023/02/05 02:45:08;;;;;;;31.25;25.83;;;;;;;9.01;100.00;103523.81;5248036;28;20105;-77
2023/02/05 02:47:47;;;;;;;33.10;24.85;;;;;;;9.11;100.00;103531.34;5264186;28;20157;-76
2023/02/05 02:50:25;;;;;;;31.08;24.10;;;;;;;9.05;100.00;103521.94;5262837;28;20031;-77
2023/02/05 02:52:58;;;;;;;32.75;24.40;;;;;;;9.00;100.00;103527.34;5262658;28;20037;-77
2023/02/05 02:55:35;;;;;;;31.45;24.33;;;;;;;9.06;100.00;103522.81;5264459;28;20032;-77
2023/02/05 02:58:11;;;;;;;30.25;23.98;;;;;;;8.98;100.00;103520.47;5267091;28;20107;-76
2023/02/05 03:00:44;;;;;;;30.48;23.05;;;;;;;8.95;100.00;103520.59;5260553;28;20441;-77
2023/02/05 03:03:19;;;;;;;29.92;21.90;;;;;;;8.97;100.00;103524.81;5260271;28;20032;-77
2023/02/05 03:05:54;;;;;;;25.95;21.25;;;;;;;8.85;100.00;103508.72;5269193;28;20469;-76
2023/02/05 03:08:53;;;;;;;27.98;20.67;;;;;;;9.05;100.00;103513.25;5267856;28;20382;-76
2023/02/05 03:11:25;;;;;;;29.00;21.75;;;;;;;8.85;100.00;103508.72;5264094;28;20059;-77
2023/02/05 03:13:57;;;;;;;26.50;19.37;;;;;;;8.90;100.00;103504.19;5243625;28;20033;-77
2023/02/05 03:16:28;;;;;;;26.90;19.00;;;;;;;8.86;100.00;103490.38;5264649;28;20037;-77
2023/02/05 03:19:01;;;;;;;25.00;18.48;;;;;;;8.81;100.00;103489.69;5263199;28;20029;-77
2023/02/05 03:21:39;;;;;;;29.15;19.00;;;;;;;8.91;100.00;103505.91;5268061;28;20017;-76
2023/02/05 03:24:11;;;;;;;25.63;18.00;;;;;;;8.75;100.00;103498.59;5259865;28;20028;-76
2023/02/05 03:26:43;;;;;;;26.73;16.30;;;;;;;8.82;100.00;103488.78;5246827;28;20090;-77
2023/02/05 03:29:20;;;;;;;21.52;16.00;;;;;;;8.88;100.00;103488.56;5261425;28;20032;-76
2023/02/05 03:31:54;;;;;;;21.13;15.98;;;;;;;8.79;100.00;103486.28;5267886;28;20025;-77
2023/02/05 03:34:38;;;;;;;21.23;16.02;;;;;;;8.99;100.00;103491.66;5262160;28;20041;-79
2023/02/05 03:37:20;;;;;;;21.55;15.68;;;;;;;8.92;100.00;103490.16;5264680;28;20036;-76
2023/02/05 03:40:29;;;;;;;20.95;15.38;;;;;;;9.07;100.00;103509.69;5265494;28;20028;-76
2023/02/05 03:43:32;;;;;;;17.48;14.02;;;;;;;9.07;100.00;103511.44;5262887;28;20028;-76
2023/02/05 03:46:19;;;;;;;19.35;13.88;;;;;;;8.94;100.00;103519.72;5265697;28;20434;-76
2023/02/05 03:49:23;;;;;;;19.13;13.55;;;;;;;9.08;100.00;103528.84;5264888;28;20028;-77
2023/02/05 03:52:05;;;;;;;18.23;13.60;;;;;;;8.94;100.00;103522.34;5268891;28;20108;-76
2023/02/05 03:55:12;;;;;;;18.83;13.48;;;;;;;9.01;100.00;103507.28;5264428;28;20024;-76
2023/02/05 03:57:55;;;;;;;15.80;13.13;;;;;;;8.93;100.00;103515.38;5242807;28;20501;-78
2023/02/05 04:00:27;;;;;;;16.90;12.45;;;;;;;8.81;100.00;103514.97;5262959;28;20062;-77
2023/02/05 04:02:59;;;;;;;18.27;12.73;;;;;;;8.71;100.00;103523.16;5263182;28;20033;-77
2023/02/05 04:05:30;;;;;;;15.52;11.50;;;;;;;8.71;100.00;103532.72;5264398;28;20396;-76
2023/02/05 04:08:01;;;;;;;16.55;12.05;;;;;;;8.66;100.00;103530.28;5245837;28;20559;-76
2023/02/05 04:10:33;;;;;;;14.82;10.63;;;;;;;8.71;100.00;103533.59;5266136;28;20047;-77
2023/02/05 04:13:04;;;;;;;16.88;11.00;;;;;;;8.73;100.00;103541.38;5267326;28;20032;-78
2023/02/05 04:15:35;;;;;;;13.75;10.93;;;;;;;8.69;100.00;103540.63;5262317;28;20113;-77
2023/02/05 04:18:07;;;;;;;17.70;11.00;;;;;;;8.68;100.00;103544.16;5265281;28;20024;-78
2023/02/05 04:20:38;;;;;;;14.75;11.10;;;;;;;8.66;100.00;103545.09;5261246;28;20024;-77
2023/02/05 04:23:10;;;;;;;14.52;10.00;;;;;;;8.69;100.00;103550.22;5263133;28;20071;-77
2023/02/05 04:25:41;;;;;;;15.32;10.90;;;;;;;8.70;100.00;103549.31;5245191;28;20032;-76
2023/02/05 04:28:12;;;;;;;15.80;11.05;;;;;;;8.68;100.00;103544.16;5265273;28;20473;-78
2023/02/05 04:30:43;;;;;;;16.00;10.65;;;;;;;8.60;100.00;103530.50;5260354;28;20114;-77
2023/02/05 04:33:15;;;;;;;14.60;11.50;;;;;;;8.61;100.00;103536.56;5262537;28;20818;-77
2023/02/05 04:35:46;;;;;;;14.00;9.73;;;;;;;8.54;100.00;103515.00;5264786;28;20415;-77
2023/02/05 04:38:17;;;;;;;16.55;10.80;;;;;;;8.61;100.00;103526.13;5262567;28;20056;-76
2023/02/05 04:40:49;;;;;;;17.60;11.23;;;;;;;8.60;100.00;103527.00;5266623;28;20054;-77
2023/02/05 04:43:21;;;;;;;16.45;11.02;;;;;;;8.59;100.00;103528.75;5251900;28;20032;-77
2023/02/05 04:45:52;;;;;;;16.17;11.32;;;;;;;8.62;100.00;103526.06;5267765;28;20033;-78
2023/02/05 04:48:23;;;;;;;16.10;11.50;;;;;;;8.62;100.00;103536.50;5286038;22;20533;-72
2023/02/05 04:50:54;;;;;;;14.68;10.98;;;;;;;8.56;100.00;103533.22;5261572;28;20036;-72
2023/02/05 04:53:26;;;;;;;14.52;10.63;;;;;;;8.55;100.00;103539.38;5266269;28;20067;-72
2023/02/05 04:56:12;;;;;;;17.35;12.48;;;;;;;8.68;100.00;103522.41;5265865;28;20050;-72
2023/02/05 04:58:44;;;;;;;14.68;11.23;;;;;;;8.44;100.00;103518.81;5263618;28;20033;-73
2023/02/05 05:01:21;;;;;;;17.73;10.40;;;;;;;8.53;100.00;103531.59;5261988;28;20027;-72
2023/02/05 05:03:52;;;;;;;14.90;11.07;;;;;;;8.49;100.00;103537.84;5267890;28;20012;-71
2023/02/05 05:06:24;;;;;;;15.20;10.98;;;;;;;8.47;100.00;103530.03;5267050;28;20040;-71
2023/02/05 05:08:55;;;;;;;18.50;11.93;;;;;;;8.49;100.00;103524.78;5267210;28;20062;-71
2023/02/05 05:11:26;;;;;;;16.80;12.25;;;;;;;8.42;100.00;103526.72;5268626;28;20028;-72
2023/02/05 05:13:57;;;;;;;17.35;12.23;;;;;;;8.38;100.00;103519.88;5269608;28;20139;-72
2023/02/05 05:16:29;;;;;;;20.15;11.93;;;;;;;8.39;100.00;103516.38;5267783;28;20032;-72
2023/02/05 05:19:00;;;;;;;17.20;12.52;;;;;;;8.37;100.00;103518.19;5249710;28;20037;-71
2023/02/05 05:21:31;;;;;;;16.27;12.77;;;;;;;8.34;100.00;103513.03;5269758;28;20025;-71
2023/02/05 05:24:03;;;;;;;15.00;11.95;;;;;;;8.35;100.00;103522.56;5261348;28;20062;-72
2023/02/05 05:26:34;;;;;;;16.25;11.80;;;;;;;8.37;100.00;103512.06;5268006;28;20052;-71
2023/02/05 05:29:05;;;;;;;19.13;13.02;;;;;;;8.41;100.00;103511.06;5269005;28;20036;-71
2023/02/05 05:31:37;;;;;;;17.08;13.52;;;;;;;8.37;100.00;103515.59;5266243;28;20115;-72
2023/02/05 05:34:08;;;;;;;15.68;12.73;;;;;;;8.35;100.00;103519.94;5269739;28;20021;-71
2023/02/05 05:36:42;;;;;;;16.15;13.43;;;;;;;8.36;100.00;103521.66;5267634;28;20029;-70
2023/02/05 05:44:54;;;;;;;18.48;12.63;;;;;;;8.31;100.00;103513.13;5264182;28;20413;-70
2023/02/05 05:47:25;;;;;;;20.73;14.13;;;;;;;8.30;100.00;103519.25;5265672;28;20044;-70
2023/02/05 05:49:56;;;;;;;18.50;13.43;;;;;;;8.29;100.00;103518.38;5267147;28;20074;-69
2023/02/05 05:52:28;;;;;;;18.17;13.95;;;;;;;8.28;100.00;103508.00;5263871;28;20952;-70
2023/02/05 05:54:59;;;;;;;17.38;12.77;;;;;;;8.26;100.00;103521.13;5263644;28;20059;-70
2023/02/05 05:57:30;;;;;;;16.67;13.10;;;;;;;8.23;100.00;103520.34;5261998;28;20544;-69
2023/02/05 06:00:03;;;;;;;17.52;13.80;;;;;;;8.24;100.00;103517.69;5268149;28;20024;-70
2023/02/05 06:02:38;;;;;;;15.98;14.13;;;;;;;8.28;100.00;103523.66;5261986;28;20462;-70
2023/02/05 06:05:10;;;;;;;12.60;9.98;;;;;;;8.22;100.00;103516.00;5268007;28;20098;-69
2023/02/05 06:07:41;;;;;;;9.65;8.48;;;;;;;8.18;100.00;103522.25;5264078;28;20476;-70
2023/02/05 06:10:13;;;;;;;11.32;7.82;;;;;;;8.17;100.00;103510.09;5267745;28;20119;-70
2023/02/05 06:12:45;;;;;;;9.95;7.80;;;;;;;8.23;100.00;103507.28;5271101;28;20500;-70
2023/02/05 06:15:16;;;;;;;10.57;6.70;;;;;;;8.21;100.00;103506.47;5264901;28;20029;-70
2023/02/05 06:17:47;;;;;;;6.03;4.07;;;;;;;8.21;100.00;103509.09;5263446;28;20028;-69
2023/02/05 06:20:19;;;;;;;5.35;4.10;;;;;;;8.10;100.00;103500.75;5263165;28;20064;-70
2023/02/05 06:22:50;;;;;;;4.45;3.47;;;;;;;8.23;100.00;103520.34;5266304;28;20029;-69
2023/02/05 06:25:21;;;;;;;4.78;2.40;;;;;;;8.21;100.00;103506.47;5268564;28;20028;-70
2023/02/05 06:27:52;;;;;;;3.25;2.13;;;;;;;8.24;100.00;103511.59;5263347;28;20505;-70
2023/02/05 06:30:24;;;;;;;3.13;2.00;;;;;;;8.17;100.00;103516.16;5266213;28;20028;-70
2023/02/05 06:32:55;;;;;;;4.63;2.40;;;;;;;8.20;100.00;103523.06;5266531;28;20085;-70
2023/02/05 06:35:26;;;;;;;5.63;2.15;;;;;;;8.21;100.00;103527.38;5262987;28;20025;-69
2023/02/05 06:37:58;;;;;;;3.88;2.05;;;;;;;8.22;100.00;103526.47;5265638;28;20044;-70
2023/02/05 06:40:29;;;;;;;5.13;2.17;;;;;;;8.23;100.00;103522.97;5268097;28;20036;-70
2023/02/05 06:43:00;;;;;;;4.72;2.15;;;;;;;8.20;100.00;103541.34;5265939;28;20064;-70
2023/02/05 06:45:32;;;;;;;5.85;2.22;;;;;;;8.12;100.00;103552.03;5260554;28;20056;-69
2023/02/05 06:48:03;;;;;;;4.45;2.30;;;;;;;8.11;100.00;103558.16;5264013;28;20094;-69
2023/02/05 06:50:34;;;;;;;6.57;2.30;;;;;;;8.14;100.00;103578.94;5268888;28;20028;-70
2023/02/05 06:53:05;;;;;;;7.97;2.20;;;;;;;8.08;100.00;103586.13;5262150;28;20059;-69
2023/02/05 06:55:37;;;;;;;5.82;1.98;;;;;;;8.00;100.00;103587.19;5261826;28;20032;-70
2023/02/05 06:58:09;;;;;;;6.47;2.05;;;;;;;7.88;100.00;103584.97;5270048;28;20021;-69
2023/02/05 07:00:40;;;;;;;8.35;1.60;;;;;;;7.84;100.00;103606.84;5262160;28;20033;-69
2023/02/05 07:03:11;;;;;;;3.20;1.02;;;;;;;7.80;100.00;103587.81;5265808;28;20016;-70
2023/02/05 07:05:43;;;;;;;7.90;1.48;;;;;;;7.78;100.00;103618.28;5264192;28;20367;-70
2023/02/05 07:08:14;;;;;;;5.65;1.10;;;;;;;7.74;100.00;103634.09;5260724;28;20081;-70
2023/02/05 07:10:45;;;;;;;6.00;1.42;;;;;;;7.70;100.00;103646.38;5244253;28;20029;-69
2023/02/05 07:13:17;;;;;;;4.00;1.17;;;;;;;7.71;100.00;103642.84;5267197;28;20109;-70
2023/02/05 07:15:48;;;;;;;4.88;1.35;;;;;;;7.63;100.00;103643.97;5261461;28;20016;-69
2023/02/05 07:18:20;;;;;;;3.70;0.80;;;;;;;7.65;100.00;103658.69;5263049;28;20052;-70
2023/02/05 07:20:51;;;;;;;5.88;1.13;;;;;;;7.76;100.00;103660.97;5260488;28;20013;-70
2023/02/05 07:23:23;;;;;;;8.18;1.85;;;;;;;7.65;100.00;103643.03;5263056;28;20035;-70
2023/02/05 07:25:54;;;;;;;4.70;1.08;;;;;;;7.67;100.00;103671.69;5249372;28;20029;-70
2023/02/05 07:28:25;;;;;;;5.50;1.25;;;;;;;7.71;100.00;103678.53;5263625;28;20140;-70
2023/02/05 07:31:05;;;;;;;6.60;1.20;;;;;;;7.66;100.00;103683.88;5264497;28;20048;-70
2023/02/05 07:33:37;;;;;;;9.38;1.45;;;;;;;7.65;100.00;103683.91;5262846;28;20028;-70
2023/02/05 07:36:10;;;;;;;7.55;1.25;;;;;;;7.60;100.00;103680.56;5265834;28;20036;-70
2023/02/05 07:38:42;;;;;;;;;;;;;;;8.19;100.00;103688.50;5264464;28;20480;-70
2023/02/05 07:41:14;;;;;;;8.85;1.73;;;;;;;7.69;100.00;103698.56;5260917;28;19921;-70
2023/02/05 07:43:50;;;;;;;7.32;1.30;;;;;;;7.75;100.00;103706.25;5262707;28;20465;-70
2023/02/05 07:46:21;;;;;;;7.32;1.83;;;;;;;7.71;100.00;103715.06;5261705;28;20421;-70
2023/02/05 07:48:53;;;;;;;8.05;2.45;;;;;;;7.65;100.00;103708.28;5259632;28;20161;-70
2023/02/05 07:51:24;;;;;;;6.38;1.38;;;;;;;7.75;100.00;103717.53;5256579;28;20043;-70
2023/02/05 07:53:56;;;;;;;6.97;1.40;;;;;;;7.64;100.00;103705.69;5262060;28;20037;-70
2023/02/05 07:56:27;;;;;;;7.32;1.77;;;;;;;7.81;100.00;103726.97;5263669;28;20029;-70
2023/02/05 07:58:58;;;;;;;8.80;1.77;;;;;;;7.75;100.00;103724.53;5262329;28;20037;-70
2023/02/05 08:01:29;;;;;;;7.60;1.27;;;;;;;7.82;100.00;103733.91;5260170;28;20421;-70
2023/02/05 08:04:01;;;;;;;5.70;1.45;;;;;;;7.81;100.00;103747.84;5260787;28;20037;-70
2023/02/05 08:06:34;;;;;;;7.63;1.70;;;;;;;7.80;100.00;103749.63;5260131;28;20108;-70
2023/02/05 08:09:05;;;;;;;6.57;1.88;;;;;;;7.83;100.00;103751.25;5261629;28;20413;-70
2023/02/05 08:11:36;;;;;;;9.65;1.85;;;;;;;7.90;100.00;103765.00;5260126;28;20029;-70
2023/02/05 08:14:07;;;;;;;8.30;1.77;;;;;;;7.79;100.00;103762.69;5259599;28;20086;-70
2023/02/05 08:16:39;;;;;;;8.07;1.67;;;;;;;7.80;100.00;103749.63;5266394;28;20124;-70
2023/02/05 08:19:15;;;;;;;15.85;2.05;;;;;;;7.92;100.00;103745.81;5264505;28;20043;-70
2023/02/05 08:21:46;;;;;;;9.70;1.63;;;;;;;7.73;100.00;103750.66;5264599;28;20036;-70
2023/02/05 08:24:18;;;;;;;7.07;1.80;;;;;;;7.80;100.00;103756.56;5266131;28;20028;-70
2023/02/05 08:26:49;;;;;;;10.10;2.08;;;;;;;7.81;100.00;103758.28;5263410;28;20028;-70
2023/02/05 08:29:20;;;;;;;13.80;2.10;;;;;;;7.80;100.00;103762.66;5262462;28;20045;-70
2023/02/05 08:31:51;;;;;;;11.60;2.35;;;;;;;7.84;100.00;103752.13;5262211;28;20776;-70
2023/02/05 08:34:23;;;;;;;10.70;2.35;;;;;;;7.87;100.00;103760.72;5245017;28;20024;-70
2023/02/05 08:36:56;;;;;;;10.57;2.90;;;;;;;7.85;100.00;103770.38;5268252;28;20032;-70
2023/02/05 08:39:27;;;;;;;;;;;;;;;8.41;100.00;103774.94;5265055;28;20316;-70
2023/02/05 08:41:58;;;;;;;7.73;2.07;;;;;;;7.93;100.00;103772.78;5265299;28;19923;-70
2023/02/05 08:44:30;;;;;;;11.20;2.03;;;;;;;7.83;100.00;103782.59;5270317;28;20032;-71
2023/02/05 08:47:02;;;;;;;10.80;2.25;;;;;;;7.85;100.00;103790.41;5264785;28;20174;-70
2023/02/05 08:49:33;;;;;;;10.85;2.22;;;;;;;7.86;100.00;103787.72;5268626;28;20128;-70
2023/02/05 08:52:04;;;;;;;11.43;2.55;;;;;;;7.86;100.00;103792.94;5264520;28;20029;-70
2023/02/05 08:54:36;;;;;;;12.40;2.25;;;;;;;7.94;100.00;103790.13;5264213;28;20422;-70
2023/02/05 08:57:08;;;;;;;9.57;1.90;;;;;;;7.93;100.00;103784.06;5266747;28;20035;-70
2023/02/05 08:59:39;;;;;;;15.65;3.50;;;;;;;7.95;100.00;103786.63;5268022;28;20025;-70
2023/02/05 09:02:14;;;;;;;12.98;2.53;;;;;;;8.07;100.00;103786.31;5267824;28;20024;-71
2023/02/05 09:04:45;;;;;;;12.02;2.15;;;;;;;8.01;100.00;103783.88;5257024;28;20032;-71
2023/02/05 09:07:17;;;;;;;11.57;2.33;;;;;;;8.03;100.00;103788.16;5263664;28;20100;-70
2023/02/05 09:09:48;;;;;;;12.88;2.90;;;;;;;8.07;100.00;103788.94;5268087;28;20028;-71
2023/02/05 09:12:19;;;;;;;14.05;2.95;;;;;;;8.08;100.00;103781.94;5266094;28;20119;-70
2023/02/05 09:14:50;;;;;;;14.38;2.83;;;;;;;8.08;100.00;103781.94;5268205;28;20104;-70
2023/02/05 09:17:22;;;;;;;15.85;2.90;;;;;;;8.10;100.00;103788.81;5261905;28;20023;-71
2023/02/05 09:19:53;;;;;;;12.30;3.17;;;;;;;8.12;100.00;103788.78;5265753;28;20033;-71
2023/02/05 09:22:25;;;;;;;15.75;2.90;;;;;;;8.11;100.00;103789.69;5263430;28;20121;-70
2023/02/05 09:24:56;;;;;;;15.52;2.72;;;;;;;8.16;100.00;103796.50;5262136;28;20036;-71
2023/02/05 09:27:27;;;;;;;14.82;3.70;;;;;;;8.14;100.00;103785.22;5261572;28;20123;-71
2023/02/05 09:29:59;;;;;;;10.82;3.13;;;;;;;8.21;100.00;103796.38;5256336;28;20115;-71
2023/02/05 09:32:30;;;;;;;13.50;3.00;;;;;;;8.24;100.00;103791.91;5255170;28;20485;-71
2023/02/05 09:35:01;;;;;;;16.85;3.03;;;;;;;8.32;100.00;103798.69;5264124;28;20020;-70
2023/02/05 09:37:32;;;;;;;14.40;3.10;;;;;;;8.31;100.00;103792.59;5263236;28;20441;-71
2023/02/05 09:40:04;;;;;;;20.05;3.70;;;;;;;8.29;100.00;103794.38;5264702;28;20028;-71
2023/02/05 09:42:47;;;;;;;18.40;4.35;;;;;;;8.44;100.00;103791.38;5264009;28;20513;-70
2023/02/05 09:45:37;;;;;;;21.05;3.70;;;;;;;8.52;100.00;103794.66;5264295;28;20020;-70
2023/02/05 09:48:52;;;;;;;14.43;4.13;;;;;;;8.67;100.00;103809.00;5267705;28;20067;-71
2023/02/05 09:51:33;;;;;;;17.38;4.30;;;;;;;8.54;100.00;103799.81;5249492;28;20033;-71
2023/02/05 09:54:16;;;;;;;19.77;4.50;;;;;;;8.56;100.00;103798.03;5255510;28;20040;-71
2023/02/05 09:56:49;;;;;;;19.30;4.07;;;;;;;8.45;100.00;103811.41;5262218;28;20415;-71
2023/02/05 09:59:24;;;;;;;19.23;3.70;;;;;;;8.47;100.00;103812.19;5261604;28;20030;-70
2023/02/05 10:01:58;;;;;;;20.30;4.07;;;;;;;8.41;100.00;103788.88;5262561;28;20021;-71
2023/02/05 10:04:29;;;;;;;19.65;4.25;;;;;;;8.43;100.00;103788.81;5266237;28;20024;-70
2023/02/05 10:07:19;;;;;;;16.23;3.95;;;;;;;8.64;100.00;103782.13;5255566;28;20562;-71
2023/02/05 10:10:01;;;;;;;23.40;4.10;;;;;;;8.44;100.00;103780.94;5266794;28;20368;-70
2023/02/05 10:12:52;;;;;;;17.05;3.70;;;;;;;8.67;100.00;103789.84;5261455;28;20549;-71
2023/02/05 10:15:41;;;;;;;19.23;4.50;;;;;;;8.56;100.00;103792.81;5262993;28;20033;-71
2023/02/05 10:18:36;;;;;;;22.50;4.90;;;;;;;8.60;100.00;103783.09;5262769;28;20045;-71
2023/02/05 10:21:38;;;;;;;20.42;3.95;;;;;;;8.67;100.00;103797.69;5265709;28;20021;-71
2023/02/05 10:24:26;;;;;;;15.80;4.10;;;;;;;8.75;100.00;103790.47;5266461;28;20032;-70
2023/02/05 10:27:08;;;;;;;29.63;4.45;;;;;;;8.64;100.00;103771.69;5266332;28;20037;-71
2023/02/05 10:30:04;;;;;;;19.92;4.18;;;;;;;8.87;100.00;103782.28;5262322;28;20032;-71
2023/02/05 10:32:55;;;;;;;17.05;3.78;;;;;;;8.92;100.00;103784.75;5250485;28;20068;-71
2023/02/05 10:35:55;;;;;;;18.80;4.28;;;;;;;8.90;100.00;103805.72;5258101;28;20449;-71
2023/02/05 10:38:32;;;;;;;17.52;3.88;;;;;;;8.85;100.00;103805.00;5261607;28;20035;-70
2023/02/05 10:41:13;;;;;;;19.88;4.15;;;;;;;8.94;100.00;103802.13;5257292;28;20032;-71
2023/02/05 10:43:49;;;;;;;22.33;3.97;;;;;;;8.89;100.00;103792.69;5259979;28;20037;-71
2023/02/05 10:46:25;;;;;;;19.25;3.40;;;;;;;8.88;100.00;103786.59;5259399;28;20464;-71
2023/02/05 10:49:05;;;;;;;22.65;4.00;;;;;;;8.92;100.00;103790.84;5262351;28;20505;-71
2023/02/05 10:51:43;;;;;;;17.92;4.45;;;;;;;8.96;100.00;103804.69;5240965;28;20025;-71
2023/02/05 10:54:34;;;;;;;19.20;3.65;;;;;;;9.20;100.00;103789.97;5261814;28;20047;-71
2023/02/05 10:57:15;;;;;;;20.23;4.15;;;;;;;9.24;100.00;103784.63;5264251;28;20044;-71
2023/02/05 10:59:54;;;;;;;19.33;4.13;;;;;;;9.25;100.00;103793.31;5274258;22;20395;-75
2023/02/05 11:02:32;;;;;;;28.33;4.97;;;;;;;9.37;100.00;103798.13;5237619;28;20033;-71
2023/02/05 11:05:17;;;;;;;18.67;3.90;;;;;;;9.44;100.00;103794.44;5241460;28;20028;-70
2023/02/05 11:07:51;;;;;;;19.42;4.82;;;;;;;9.32;100.00;103810.53;5250620;28;20028;-72
2023/02/05 11:10:29;;;;;;;18.27;4.25;;;;;;;9.44;100.00;103823.22;5244792;28;20103;-71
2023/02/05 11:13:17;;;;;;;19.60;4.15;;;;;;;9.50;100.00;103817.75;5246173;28;20424;-71
2023/02/05 11:15:58;;;;;;;16.58;3.72;;;;;;;9.26;100.00;103811.56;5242391;28;20051;-71
2023/02/05 11:18:37;;;;;;;18.10;3.85;;;;;;;9.25;100.00;103809.00;5239328;28;20037;-74
2023/02/05 11:21:09;;;;;;;16.23;4.20;;;;;;;9.30;100.00;103811.47;5243266;28;20083;-71
2023/02/05 11:23:54;;;;;;;20.48;4.43;;;;;;;9.47;100.00;103806.53;5242951;28;20021;-74
2023/02/05 11:26:28;;;;;;;22.35;4.70;;;;;;;9.26;100.00;103802.88;5242655;28;20362;-71
2023/02/05 11:29:18;;;;;;;18.48;4.00;;;;;;;9.50;100.00;103803.81;5245804;28;20045;-72
2023/02/05 11:31:49;;;;;;;18.75;4.70;;;;;;;9.36;100.00;103806.91;5240643;28;20794;-70
2023/02/05 11:34:20;;;;;;;18.60;4.70;;;;;;;9.43;100.00;103812.78;5246354;28;20044;-71
2023/02/05 11:36:54;;;;;;;19.05;3.95;;;;;;;9.48;100.00;103803.03;5240736;28;20032;-73
2023/02/05 11:39:28;;;;;;;22.25;4.10;;;;;;;9.48;100.00;103797.78;5241077;28;20075;-74
2023/02/05 11:42:08;;;;;;;28.33;4.63;;;;;;;9.47;100.00;103822.22;5242301;28;20127;-71
2023/02/05 11:44:48;;;;;;;21.63;4.70;;;;;;;9.59;100.00;103816.63;5245061;28;20036;-71
2023/02/05 11:47:27;;;;;;;17.73;4.32;;;;;;;9.67;100.00;103805.91;5238431;28;20037;-71
2023/02/05 11:49:59;;;;;;;24.33;5.35;;;;;;;9.63;100.00;103793.81;5241443;28;20026;-72
2023/02/05 11:52:36;;;;;;;20.80;4.00;;;;;;;9.67;100.00;103805.91;5236305;28;20041;-71
2023/02/05 11:55:24;;;;;;;22.00;5.10;;;;;;;9.86;100.00;103787.78;5219207;28;20086;-72
2023/02/05 11:58:16;;;;;;;22.30;4.18;;;;;;;9.81;100.00;103794.94;5233254;28;20120;-71